sensor_id;sensor_type;location;lat;lon;timestamp;temperature;humidity
7000;DHT22;3540;53.242;10.408;2022-12-08T00:01:07;1.50;99.90
7000;DHT22;3540;53.242;10.408;2022-12-08T00:03:34;1.50;99.90
7000;DHT22;3540;53.242;10.408;2022-12-08T00:06:01;1.40;99.90
7000;DHT22;3540;53.242;10.408;2022-12-08T00:08:45;1.50;99.90
7000;DHT22;3540;53.242;10.408;2022-12-08T00:11:30;1.40;99.90
7000;DHT22;3540;53.242;10.408;2022-12-08T00:13:55;1.50;99.90
7000;DHT22;3540;53.242;10.408;2022-12-08T00:16:21;1.40;99.90
7000;DHT22;3540;53.242;10.408;2022-12-08T00:18:46;1.40;99.90
7000;DHT22;3540;53.242;10.408;2022-12-08T00:21:12;1.30;99.90
7000;DHT22;3540;53.242;10.408;2022-12-08T00:23:38;1.30;99.90
7000;DHT22;3540;53.242;10.408;2022-12-08T00:26:03;1.30;99.90
7000;DHT22;3540;53.242;10.408;2022-12-08T00:28:31;1.40;99.90
7000;DHT22;3540;53.242;10.408;2022-12-08T00:30:57;1.40;99.90
7000;DHT22;3540;53.242;10.408;2022-12-08T00:33:23;1.40;99.90
7000;DHT22;3540;53.242;10.408;2022-12-08T00:35:48;1.50;99.90
7000;DHT22;3540;53.242;10.408;2022-12-08T00:38:14;1.50;99.90
7000;DHT22;3540;53.242;10.408;2022-12-08T00:40:46;1.50;99.90
7000;DHT22;3540;53.242;10.408;2022-12-08T00:43:13;1.50;99.90
7000;DHT22;3540;53.242;10.408;2022-12-08T00:45:39;1.60;99.90
7000;DHT22;3540;53.242;10.408;2022-12-08T00:48:05;1.60;99.90
7000;DHT22;3540;53.242;10.408;2022-12-08T00:50:31;1.60;99.90
7000;DHT22;3540;53.242;10.408;2022-12-08T00:52:57;1.70;99.90
7000;DHT22;3540;53.242;10.408;2022-12-08T00:55:23;1.70;99.90
7000;DHT22;3540;53.242;10.408;2022-12-08T00:57:48;1.70;99.90
7000;DHT22;3540;53.242;10.408;2022-12-08T01:00:14;1.70;99.90
7000;DHT22;3540;53.242;10.408;2022-12-08T01:02:40;1.80;99.90
7000;DHT22;3540;53.242;10.408;2022-12-08T01:05:06;1.80;99.90
7000;DHT22;3540;53.242;10.408;2022-12-08T01:07:32;1.80;99.90
7000;DHT22;3540;53.242;10.408;2022-12-08T01:09:58;1.80;99.90
7000;DHT22;3540;53.242;10.408;2022-12-08T01:12:24;1.90;99.90
7000;DHT22;3540;53.242;10.408;2022-12-08T01:14:49;1.90;99.90
7000;DHT22;3540;53.242;10.408;2022-12-08T01:17:15;1.90;99.90
7000;DHT22;3540;53.242;10.408;2022-12-08T01:19:40;2.00;99.90
7000;DHT22;3540;53.242;10.408;2022-12-08T01:22:06;2.00;99.90
7000;DHT22;3540;53.242;10.408;2022-12-08T01:24:32;2.00;99.90
7000;DHT22;3540;53.242;10.408;2022-12-08T01:26:57;2.00;99.90
7000;DHT22;3540;53.242;10.408;2022-12-08T01:29:23;2.10;99.90
7000;DHT22;3540;53.242;10.408;2022-12-08T01:31:49;2.10;99.90
7000;DHT22;3540;53.242;10.408;2022-12-08T01:34:14;2.10;99.90
7000;DHT22;3540;53.242;10.408;2022-12-08T01:36:40;2.10;99.90
7000;DHT22;3540;53.242;10.408;2022-12-08T01:39:13;2.20;99.90
7000;DHT22;3540;53.242;10.408;2022-12-08T01:41:41;2.20;99.90
7000;DHT22;3540;53.242;10.408;2022-12-08T01:46:36;2.30;99.90
7000;DHT22;3540;53.242;10.408;2022-12-08T01:49:24;2.30;99.90
7000;DHT22;3540;53.242;10.408;2022-12-08T01:51:55;2.30;99.90
7000;DHT22;3540;53.242;10.408;2022-12-08T01:54:27;2.30;99.90
7000;DHT22;3540;53.242;10.408;2022-12-08T01:57:29;2.30;99.90
7000;DHT22;3540;53.242;10.408;2022-12-08T02:00:12;2.30;99.90
7000;DHT22;3540;53.242;10.408;2022-12-08T02:02:58;2.40;99.90
7000;DHT22;3540;53.242;10.408;2022-12-08T02:05:31;2.40;99.90
7000;DHT22;3540;53.242;10.408;2022-12-08T02:07:57;2.40;99.90
7000;DHT22;3540;53.242;10.408;2022-12-08T02:10:28;2.40;99.90
7000;DHT22;3540;53.242;10.408;2022-12-08T02:12:55;2.40;99.90
7000;DHT22;3540;53.242;10.408;2022-12-08T02:15:31;2.40;99.90
7000;DHT22;3540;53.242;10.408;2022-12-08T02:21:02;2.40;99.90
7000;DHT22;3540;53.242;10.408;2022-12-08T02:23:46;2.40;99.90
7000;DHT22;3540;53.242;10.408;2022-12-08T02:32:11;2.50;99.90
7000;DHT22;3540;53.242;10.408;2022-12-08T02:34:54;2.50;99.90
7000;DHT22;3540;53.242;10.408;2022-12-08T02:37:26;2.50;99.90
7000;DHT22;3540;53.242;10.408;2022-12-08T02:40:16;2.50;99.90
7000;DHT22;3540;53.242;10.408;2022-12-08T02:46:00;2.50;99.90
7000;DHT22;3540;53.242;10.408;2022-12-08T02:48:28;2.50;99.90
7000;DHT22;3540;53.242;10.408;2022-12-08T02:50:54;2.50;99.90
7000;DHT22;3540;53.242;10.408;2022-12-08T02:53:19;2.50;99.90
7000;DHT22;3540;53.242;10.408;2022-12-08T03:07:01;2.60;99.90
7000;DHT22;3540;53.242;10.408;2022-12-08T03:09:44;2.60;99.90
7000;DHT22;3540;53.242;10.408;2022-12-08T03:12:42;2.60;99.90
7000;DHT22;3540;53.242;10.408;2022-12-08T03:15:13;2.60;99.90
7000;DHT22;3540;53.242;10.408;2022-12-08T03:17:43;2.60;99.90
7000;DHT22;3540;53.242;10.408;2022-12-08T03:20:12;2.60;99.90
7000;DHT22;3540;53.242;10.408;2022-12-08T03:22:40;2.60;99.90
7000;DHT22;3540;53.242;10.408;2022-12-08T03:25:09;2.60;99.90
7000;DHT22;3540;53.242;10.408;2022-12-08T03:27:34;2.60;99.90
7000;DHT22;3540;53.242;10.408;2022-12-08T03:30:00;2.60;99.90
7000;DHT22;3540;53.242;10.408;2022-12-08T03:35:02;2.60;99.90
7000;DHT22;3540;53.242;10.408;2022-12-08T03:37:28;2.60;99.90
7000;DHT22;3540;53.242;10.408;2022-12-08T03:39:54;2.60;99.90
7000;DHT22;3540;53.242;10.408;2022-12-08T03:42:20;2.60;99.90
7000;DHT22;3540;53.242;10.408;2022-12-08T03:44:46;2.60;99.90
7000;DHT22;3540;53.242;10.408;2022-12-08T03:47:11;2.60;99.90
7000;DHT22;3540;53.242;10.408;2022-12-08T03:49:37;2.60;99.90
7000;DHT22;3540;53.242;10.408;2022-12-08T03:52:02;2.60;99.90
7000;DHT22;3540;53.242;10.408;2022-12-08T03:54:28;2.60;99.90
7000;DHT22;3540;53.242;10.408;2022-12-08T03:56:54;2.60;99.90
7000;DHT22;3540;53.242;10.408;2022-12-08T03:59:20;2.60;99.90
7000;DHT22;3540;53.242;10.408;2022-12-08T04:01:45;2.60;99.90
7000;DHT22;3540;53.242;10.408;2022-12-08T04:04:11;2.60;99.90
7000;DHT22;3540;53.242;10.408;2022-12-08T04:06:36;2.60;99.90
7000;DHT22;3540;53.242;10.408;2022-12-08T04:09:03;2.60;99.90
7000;DHT22;3540;53.242;10.408;2022-12-08T04:11:28;2.70;99.90
7000;DHT22;3540;53.242;10.408;2022-12-08T04:13:54;2.70;99.90
7000;DHT22;3540;53.242;10.408;2022-12-08T04:16:22;2.70;99.90
7000;DHT22;3540;53.242;10.408;2022-12-08T04:18:49;2.60;99.90
7000;DHT22;3540;53.242;10.408;2022-12-08T04:21:15;2.60;99.90
7000;DHT22;3540;53.242;10.408;2022-12-08T04:23:41;2.60;99.90
7000;DHT22;3540;53.242;10.408;2022-12-08T04:26:07;2.60;99.90
7000;DHT22;3540;53.242;10.408;2022-12-08T04:28:33;2.60;99.90
7000;DHT22;3540;53.242;10.408;2022-12-08T04:30:59;2.60;99.90
7000;DHT22;3540;53.242;10.408;2022-12-08T04:33:25;2.60;99.90
7000;DHT22;3540;53.242;10.408;2022-12-08T04:35:50;2.60;99.90
7000;DHT22;3540;53.242;10.408;2022-12-08T04:38:16;2.50;99.90
7000;DHT22;3540;53.242;10.408;2022-12-08T04:40:42;2.50;99.90
7000;DHT22;3540;53.242;10.408;2022-12-08T04:43:07;2.50;99.90
7000;DHT22;3540;53.242;10.408;2022-12-08T04:45:33;2.40;99.90
7000;DHT22;3540;53.242;10.408;2022-12-08T04:48:00;2.40;99.90
7000;DHT22;3540;53.242;10.408;2022-12-08T04:50:26;2.40;99.90
7000;DHT22;3540;53.242;10.408;2022-12-08T04:52:52;2.30;99.90
7000;DHT22;3540;53.242;10.408;2022-12-08T04:55:18;2.30;99.90
7000;DHT22;3540;53.242;10.408;2022-12-08T04:57:43;2.30;99.90
7000;DHT22;3540;53.242;10.408;2022-12-08T05:00:10;2.30;99.90
7000;DHT22;3540;53.242;10.408;2022-12-08T05:02:36;2.30;99.90
7000;DHT22;3540;53.242;10.408;2022-12-08T05:05:02;2.30;99.90
7000;DHT22;3540;53.242;10.408;2022-12-08T05:07:28;2.30;99.90
7000;DHT22;3540;53.242;10.408;2022-12-08T05:09:54;2.30;99.90
7000;DHT22;3540;53.242;10.408;2022-12-08T05:12:19;2.20;99.90
7000;DHT22;3540;53.242;10.408;2022-12-08T05:14:48;2.20;99.90
7000;DHT22;3540;53.242;10.408;2022-12-08T05:17:15;2.10;99.90
7000;DHT22;3540;53.242;10.408;2022-12-08T05:19:41;2.10;99.90
7000;DHT22;3540;53.242;10.408;2022-12-08T05:22:07;2.10;99.90
7000;DHT22;3540;53.242;10.408;2022-12-08T05:24:32;2.00;99.90
7000;DHT22;3540;53.242;10.408;2022-12-08T05:26:58;2.00;99.90
7000;DHT22;3540;53.242;10.408;2022-12-08T05:29:24;1.90;99.90
7000;DHT22;3540;53.242;10.408;2022-12-08T05:31:49;1.90;99.90
7000;DHT22;3540;53.242;10.408;2022-12-08T05:34:15;1.90;99.90
7000;DHT22;3540;53.242;10.408;2022-12-08T05:36:41;1.90;99.90
7000;DHT22;3540;53.242;10.408;2022-12-08T05:39:07;1.90;99.90
7000;DHT22;3540;53.242;10.408;2022-12-08T05:41:33;1.80;99.90
7000;DHT22;3540;53.242;10.408;2022-12-08T05:43:59;1.80;99.90
7000;DHT22;3540;53.242;10.408;2022-12-08T05:46:24;1.80;99.90
7000;DHT22;3540;53.242;10.408;2022-12-08T05:48:50;1.80;99.90
7000;DHT22;3540;53.242;10.408;2022-12-08T05:51:22;1.80;99.90
7000;DHT22;3540;53.242;10.408;2022-12-08T05:53:49;1.80;99.90
7000;DHT22;3540;53.242;10.408;2022-12-08T05:56:14;1.80;99.90
7000;DHT22;3540;53.242;10.408;2022-12-08T05:58:40;1.80;99.90
7000;DHT22;3540;53.242;10.408;2022-12-08T06:01:06;1.80;99.90
7000;DHT22;3540;53.242;10.408;2022-12-08T06:03:32;1.70;99.90
7000;DHT22;3540;53.242;10.408;2022-12-08T06:05:58;1.70;99.90
7000;DHT22;3540;53.242;10.408;2022-12-08T06:08:24;1.70;99.90
7000;DHT22;3540;53.242;10.408;2022-12-08T06:10:49;1.70;99.90
7000;DHT22;3540;53.242;10.408;2022-12-08T06:13:15;1.70;99.90
7000;DHT22;3540;53.242;10.408;2022-12-08T06:15:41;1.70;99.90
7000;DHT22;3540;53.242;10.408;2022-12-08T06:18:08;1.70;99.90
7000;DHT22;3540;53.242;10.408;2022-12-08T06:20:34;1.70;99.90
7000;DHT22;3540;53.242;10.408;2022-12-08T06:22:59;1.70;99.90
7000;DHT22;3540;53.242;10.408;2022-12-08T06:25:26;1.70;99.90
7000;DHT22;3540;53.242;10.408;2022-12-08T06:27:54;1.70;99.90
7000;DHT22;3540;53.242;10.408;2022-12-08T06:30:20;1.70;99.90
7000;DHT22;3540;53.242;10.408;2022-12-08T06:32:46;1.70;99.90
7000;DHT22;3540;53.242;10.408;2022-12-08T06:35:11;1.70;99.90
7000;DHT22;3540;53.242;10.408;2022-12-08T06:37:37;1.60;99.90
7000;DHT22;3540;53.242;10.408;2022-12-08T06:40:03;1.70;99.90
7000;DHT22;3540;53.242;10.408;2022-12-08T06:42:28;1.70;99.90
7000;DHT22;3540;53.242;10.408;2022-12-08T06:45:14;1.70;99.90
7000;DHT22;3540;53.242;10.408;2022-12-08T06:47:40;1.60;99.90
7000;DHT22;3540;53.242;10.408;2022-12-08T06:50:07;1.60;99.90
7000;DHT22;3540;53.242;10.408;2022-12-08T06:52:34;1.70;99.90
7000;DHT22;3540;53.242;10.408;2022-12-08T06:54:59;1.70;99.90
7000;DHT22;3540;53.242;10.408;2022-12-08T06:57:25;1.70;99.90
7000;DHT22;3540;53.242;10.408;2022-12-08T06:59:51;1.70;99.90
7000;DHT22;3540;53.242;10.408;2022-12-08T07:02:16;1.70;99.90
7000;DHT22;3540;53.242;10.408;2022-12-08T07:04:42;1.70;99.90
7000;DHT22;3540;53.242;10.408;2022-12-08T07:07:08;1.70;99.90
7000;DHT22;3540;53.242;10.408;2022-12-08T07:09:34;1.70;99.90
7000;DHT22;3540;53.242;10.408;2022-12-08T07:12:02;1.70;99.90
7000;DHT22;3540;53.242;10.408;2022-12-08T07:14:28;1.70;99.90
7000;DHT22;3540;53.242;10.408;2022-12-08T07:16:53;1.70;99.90
7000;DHT22;3540;53.242;10.408;2022-12-08T07:19:19;1.60;99.90
7000;DHT22;3540;53.242;10.408;2022-12-08T07:21:45;1.60;99.90
7000;DHT22;3540;53.242;10.408;2022-12-08T07:24:10;1.60;99.90
7000;DHT22;3540;53.242;10.408;2022-12-08T07:26:36;1.50;99.90
7000;DHT22;3540;53.242;10.408;2022-12-08T07:29:02;1.50;99.90
7000;DHT22;3540;53.242;10.408;2022-12-08T07:31:28;1.40;99.90
7000;DHT22;3540;53.242;10.408;2022-12-08T07:33:55;1.40;99.90
7000;DHT22;3540;53.242;10.408;2022-12-08T07:36:21;1.30;99.90
7000;DHT22;3540;53.242;10.408;2022-12-08T07:38:48;1.20;99.90
7000;DHT22;3540;53.242;10.408;2022-12-08T07:41:21;1.20;99.90
7000;DHT22;3540;53.242;10.408;2022-12-08T07:43:47;1.20;99.90
7000;DHT22;3540;53.242;10.408;2022-12-08T07:46:18;1.10;99.90
7000;DHT22;3540;53.242;10.408;2022-12-08T07:48:44;1.10;99.90
7000;DHT22;3540;53.242;10.408;2022-12-08T07:51:11;1.10;99.90
7000;DHT22;3540;53.242;10.408;2022-12-08T07:53:39;1.00;99.90
7000;DHT22;3540;53.242;10.408;2022-12-08T07:56:06;1.00;99.90
7000;DHT22;3540;53.242;10.408;2022-12-08T07:58:32;0.90;99.90
7000;DHT22;3540;53.242;10.408;2022-12-08T08:00:58;0.90;99.90
7000;DHT22;3540;53.242;10.408;2022-12-08T08:03:23;0.90;99.90
7000;DHT22;3540;53.242;10.408;2022-12-08T08:05:49;0.90;99.90
7000;DHT22;3540;53.242;10.408;2022-12-08T08:08:15;1.00;99.90
7000;DHT22;3540;53.242;10.408;2022-12-08T08:10:41;1.10;99.90
7000;DHT22;3540;53.242;10.408;2022-12-08T08:13:07;1.10;99.90
7000;DHT22;3540;53.242;10.408;2022-12-08T08:15:33;1.10;99.90
7000;DHT22;3540;53.242;10.408;2022-12-08T08:17:59;1.10;99.90
7000;DHT22;3540;53.242;10.408;2022-12-08T08:20:24;1.10;99.90
7000;DHT22;3540;53.242;10.408;2022-12-08T08:22:50;1.10;99.90
7000;DHT22;3540;53.242;10.408;2022-12-08T08:25:18;1.20;99.90
7000;DHT22;3540;53.242;10.408;2022-12-08T08:27:44;1.20;99.90
7000;DHT22;3540;53.242;10.408;2022-12-08T08:30:11;1.20;99.90
7000;DHT22;3540;53.242;10.408;2022-12-08T08:32:37;1.30;99.90
7000;DHT22;3540;53.242;10.408;2022-12-08T08:35:04;1.30;99.90
7000;DHT22;3540;53.242;10.408;2022-12-08T08:37:30;1.30;99.90
7000;DHT22;3540;53.242;10.408;2022-12-08T08:39:56;1.30;99.90
7000;DHT22;3540;53.242;10.408;2022-12-08T08:42:22;1.30;99.90
7000;DHT22;3540;53.242;10.408;2022-12-08T08:44:47;1.30;99.90
7000;DHT22;3540;53.242;10.408;2022-12-08T08:47:14;1.30;99.90
7000;DHT22;3540;53.242;10.408;2022-12-08T08:49:39;1.40;99.90
7000;DHT22;3540;53.242;10.408;2022-12-08T08:52:05;1.40;99.90
7000;DHT22;3540;53.242;10.408;2022-12-08T08:54:32;1.40;99.90
7000;DHT22;3540;53.242;10.408;2022-12-08T08:56:58;1.40;99.90
7000;DHT22;3540;53.242;10.408;2022-12-08T08:59:25;1.50;99.90
7000;DHT22;3540;53.242;10.408;2022-12-08T09:01:52;1.50;99.90
7000;DHT22;3540;53.242;10.408;2022-12-08T09:04:17;1.50;99.90
7000;DHT22;3540;53.242;10.408;2022-12-08T09:06:43;1.60;99.90
7000;DHT22;3540;53.242;10.408;2022-12-08T09:09:10;1.60;99.90
7000;DHT22;3540;53.242;10.408;2022-12-08T09:11:36;1.70;99.90
7000;DHT22;3540;53.242;10.408;2022-12-08T09:14:01;1.70;99.90
7000;DHT22;3540;53.242;10.408;2022-12-08T09:16:27;1.70;99.90
7000;DHT22;3540;53.242;10.408;2022-12-08T09:18:53;1.70;99.90
7000;DHT22;3540;53.242;10.408;2022-12-08T09:21:21;1.60;99.90
7000;DHT22;3540;53.242;10.408;2022-12-08T09:23:48;1.60;99.90
7000;DHT22;3540;53.242;10.408;2022-12-08T09:26:14;1.60;99.90
7000;DHT22;3540;53.242;10.408;2022-12-08T09:28:40;1.60;99.90
7000;DHT22;3540;53.242;10.408;2022-12-08T09:31:12;1.70;99.90
7000;DHT22;3540;53.242;10.408;2022-12-08T09:33:38;1.70;99.90
7000;DHT22;3540;53.242;10.408;2022-12-08T09:36:04;1.70;99.90
7000;DHT22;3540;53.242;10.408;2022-12-08T09:38:30;1.80;99.90
7000;DHT22;3540;53.242;10.408;2022-12-08T09:40:56;1.80;99.90
7000;DHT22;3540;53.242;10.408;2022-12-08T09:46:18;1.90;99.90
7000;DHT22;3540;53.242;10.408;2022-12-08T09:48:49;1.90;99.90
7000;DHT22;3540;53.242;10.408;2022-12-08T09:51:22;1.90;99.90
7000;DHT22;3540;53.242;10.408;2022-12-08T09:56:52;2.00;99.90
7000;DHT22;3540;53.242;10.408;2022-12-08T09:59:29;2.10;99.90
7000;DHT22;3540;53.242;10.408;2022-12-08T10:01:55;2.10;99.90
7000;DHT22;3540;53.242;10.408;2022-12-08T10:04:25;2.10;99.90
7000;DHT22;3540;53.242;10.408;2022-12-08T10:15:28;2.60;99.90
7000;DHT22;3540;53.242;10.408;2022-12-08T10:18:00;2.70;99.90
7000;DHT22;3540;53.242;10.408;2022-12-08T10:20:35;2.70;99.90
7000;DHT22;3540;53.242;10.408;2022-12-08T10:25:51;2.70;99.90
7000;DHT22;3540;53.242;10.408;2022-12-08T10:28:17;2.60;99.90
7000;DHT22;3540;53.242;10.408;2022-12-08T10:30:43;2.60;99.90
7000;DHT22;3540;53.242;10.408;2022-12-08T10:33:17;2.50;99.90
7000;DHT22;3540;53.242;10.408;2022-12-08T10:38:16;2.60;99.90
7000;DHT22;3540;53.242;10.408;2022-12-08T10:40:43;2.50;99.90
7000;DHT22;3540;53.242;10.408;2022-12-08T10:43:16;2.60;99.90
7000;DHT22;3540;53.242;10.408;2022-12-08T10:45:42;2.60;99.90
7000;DHT22;3540;53.242;10.408;2022-12-08T10:48:21;2.70;99.90
7000;DHT22;3540;53.242;10.408;2022-12-08T10:50:52;2.80;99.90
7000;DHT22;3540;53.242;10.408;2022-12-08T10:56:13;3.20;99.90
7000;DHT22;3540;53.242;10.408;2022-12-08T10:58:41;3.40;99.90
7000;DHT22;3540;53.242;10.408;2022-12-08T11:01:23;3.50;99.90
7000;DHT22;3540;53.242;10.408;2022-12-08T11:04:11;3.60;99.90
7000;DHT22;3540;53.242;10.408;2022-12-08T11:06:39;3.70;99.90
7000;DHT22;3540;53.242;10.408;2022-12-08T11:11:53;3.50;99.90
7000;DHT22;3540;53.242;10.408;2022-12-08T11:14:29;3.50;99.90
7000;DHT22;3540;53.242;10.408;2022-12-08T11:17:27;3.40;99.90
7000;DHT22;3540;53.242;10.408;2022-12-08T11:20:19;3.40;99.90
7000;DHT22;3540;53.242;10.408;2022-12-08T11:22:53;3.40;99.90
7000;DHT22;3540;53.242;10.408;2022-12-08T11:25:23;3.30;99.90
7000;DHT22;3540;53.242;10.408;2022-12-08T11:27:51;3.10;99.90
7000;DHT22;3540;53.242;10.408;2022-12-08T11:32:59;3.10;99.90
7000;DHT22;3540;53.242;10.408;2022-12-08T11:35:29;3.00;99.90
7000;DHT22;3540;53.242;10.408;2022-12-08T11:37:59;3.00;99.90
7000;DHT22;3540;53.242;10.408;2022-12-08T11:40:41;3.00;99.90
7000;DHT22;3540;53.242;10.408;2022-12-08T11:43:28;3.00;99.90
7000;DHT22;3540;53.242;10.408;2022-12-08T11:45:58;3.00;99.90
7000;DHT22;3540;53.242;10.408;2022-12-08T11:51:19;3.10;99.90
7000;DHT22;3540;53.242;10.408;2022-12-08T11:56:28;3.00;99.90
7000;DHT22;3540;53.242;10.408;2022-12-08T11:59:00;2.90;99.90
7000;DHT22;3540;53.242;10.408;2022-12-08T12:01:27;3.00;99.90
7000;DHT22;3540;53.242;10.408;2022-12-08T12:04:05;3.00;99.90
7000;DHT22;3540;53.242;10.408;2022-12-08T12:17:50;2.90;99.90
7000;DHT22;3540;53.242;10.408;2022-12-08T12:20:31;2.80;99.90
7000;DHT22;3540;53.242;10.408;2022-12-08T12:23:05;2.80;99.90
7000;DHT22;3540;53.242;10.408;2022-12-08T12:25:33;2.70;99.90
7000;DHT22;3540;53.242;10.408;2022-12-08T12:28:03;2.70;99.90
7000;DHT22;3540;53.242;10.408;2022-12-08T12:33:15;2.80;99.90
7000;DHT22;3540;53.242;10.408;2022-12-08T12:35:43;2.90;99.90
7000;DHT22;3540;53.242;10.408;2022-12-08T12:38:25;3.00;99.90
7000;DHT22;3540;53.242;10.408;2022-12-08T12:41:11;3.10;99.90
7000;DHT22;3540;53.242;10.408;2022-12-08T12:43:38;3.30;99.90
7000;DHT22;3540;53.242;10.408;2022-12-08T12:48:51;3.40;99.90
7000;DHT22;3540;53.242;10.408;2022-12-08T12:51:45;3.30;99.90
7000;DHT22;3540;53.242;10.408;2022-12-08T12:54:24;3.00;99.90
7000;DHT22;3540;53.242;10.408;2022-12-08T12:56:55;2.90;99.90
7000;DHT22;3540;53.242;10.408;2022-12-08T12:59:45;2.80;99.90
7000;DHT22;3540;53.242;10.408;2022-12-08T13:02:22;2.80;99.90
7000;DHT22;3540;53.242;10.408;2022-12-08T13:05:09;2.70;99.90
7000;DHT22;3540;53.242;10.408;2022-12-08T13:07:42;2.70;99.90
7000;DHT22;3540;53.242;10.408;2022-12-08T13:15:55;2.60;99.90
7000;DHT22;3540;53.242;10.408;2022-12-08T13:18:20;2.60;99.90
7000;DHT22;3540;53.242;10.408;2022-12-08T13:21:13;2.70;99.90
7000;DHT22;3540;53.242;10.408;2022-12-08T13:29:29;3.00;99.90
7000;DHT22;3540;53.242;10.408;2022-12-08T13:31:55;3.10;99.90
7000;DHT22;3540;53.242;10.408;2022-12-08T13:34:38;3.20;99.90
7000;DHT22;3540;53.242;10.408;2022-12-08T13:44:57;3.30;99.90
7000;DHT22;3540;53.242;10.408;2022-12-08T13:47:41;3.20;99.90
7000;DHT22;3540;53.242;10.408;2022-12-08T13:50:13;3.30;99.90
7000;DHT22;3540;53.242;10.408;2022-12-08T13:55:36;3.40;99.90
7000;DHT22;3540;53.242;10.408;2022-12-08T13:58:03;3.50;99.90
7000;DHT22;3540;53.242;10.408;2022-12-08T14:00:29;3.50;99.90
7000;DHT22;3540;53.242;10.408;2022-12-08T14:02:56;3.50;99.90
7000;DHT22;3540;53.242;10.408;2022-12-08T14:05:25;3.50;99.90
7000;DHT22;3540;53.242;10.408;2022-12-08T14:07:54;3.50;99.90
7000;DHT22;3540;53.242;10.408;2022-12-08T14:10:27;3.50;99.90
7000;DHT22;3540;53.242;10.408;2022-12-08T14:13:10;3.50;99.90
7000;DHT22;3540;53.242;10.408;2022-12-08T14:15:38;3.40;99.90
7000;DHT22;3540;53.242;10.408;2022-12-08T14:18:05;3.40;99.90
7000;DHT22;3540;53.242;10.408;2022-12-08T14:20:58;3.30;99.90
7000;DHT22;3540;53.242;10.408;2022-12-08T14:23:24;3.20;99.90
7000;DHT22;3540;53.242;10.408;2022-12-08T14:25:50;3.20;99.90
7000;DHT22;3540;53.242;10.408;2022-12-08T14:28:16;3.20;99.90
7000;DHT22;3540;53.242;10.408;2022-12-08T14:30:41;3.10;99.90
7000;DHT22;3540;53.242;10.408;2022-12-08T14:33:12;3.10;99.90
7000;DHT22;3540;53.242;10.408;2022-12-08T14:35:38;3.10;99.90
7000;DHT22;3540;53.242;10.408;2022-12-08T14:38:12;3.00;99.90
7000;DHT22;3540;53.242;10.408;2022-12-08T14:40:43;3.10;99.90
7000;DHT22;3540;53.242;10.408;2022-12-08T14:59:21;2.70;99.90
7000;DHT22;3540;53.242;10.408;2022-12-08T15:01:52;2.70;99.90
7000;DHT22;3540;53.242;10.408;2022-12-08T15:04:27;2.70;99.90
7000;DHT22;3540;53.242;10.408;2022-12-08T15:07:06;2.70;99.90
7000;DHT22;3540;53.242;10.408;2022-12-08T15:09:37;2.70;99.90
7000;DHT22;3540;53.242;10.408;2022-12-08T15:14:32;2.60;99.90
7000;DHT22;3540;53.242;10.408;2022-12-08T15:16:59;2.60;99.90
7000;DHT22;3540;53.242;10.408;2022-12-08T15:19:30;2.60;99.90
7000;DHT22;3540;53.242;10.408;2022-12-08T15:21:58;2.60;99.90
7000;DHT22;3540;53.242;10.408;2022-12-08T15:24:31;2.60;99.90
7000;DHT22;3540;53.242;10.408;2022-12-08T15:27:00;2.60;99.90
7000;DHT22;3540;53.242;10.408;2022-12-08T15:29:28;2.60;99.90
7000;DHT22;3540;53.242;10.408;2022-12-08T15:31:59;2.70;99.90
7000;DHT22;3540;53.242;10.408;2022-12-08T15:34:25;2.70;99.90
7000;DHT22;3540;53.242;10.408;2022-12-08T15:36:52;2.70;99.90
7000;DHT22;3540;53.242;10.408;2022-12-08T15:39:36;2.70;99.90
7000;DHT22;3540;53.242;10.408;2022-12-08T15:42:05;2.40;99.90
7000;DHT22;3540;53.242;10.408;2022-12-08T15:44:36;2.10;99.90
7000;DHT22;3540;53.242;10.408;2022-12-08T15:47:02;1.90;99.90
7000;DHT22;3540;53.242;10.408;2022-12-08T15:49:27;1.70;99.90
7000;DHT22;3540;53.242;10.408;2022-12-08T15:51:53;1.60;99.90
7000;DHT22;3540;53.242;10.408;2022-12-08T15:54:19;1.60;99.90
7000;DHT22;3540;53.242;10.408;2022-12-08T15:56:53;1.60;99.90
7000;DHT22;3540;53.242;10.408;2022-12-08T15:59:22;1.60;99.90
7000;DHT22;3540;53.242;10.408;2022-12-08T16:01:49;1.60;99.90
7000;DHT22;3540;53.242;10.408;2022-12-08T16:04:18;1.60;99.90
7000;DHT22;3540;53.242;10.408;2022-12-08T16:06:46;1.50;99.90
7000;DHT22;3540;53.242;10.408;2022-12-08T16:09:28;1.50;99.90
7000;DHT22;3540;53.242;10.408;2022-12-08T16:11:55;1.40;99.90
7000;DHT22;3540;53.242;10.408;2022-12-08T16:14:39;1.40;99.90
7000;DHT22;3540;53.242;10.408;2022-12-08T16:17:14;1.40;99.90
7000;DHT22;3540;53.242;10.408;2022-12-08T16:19:40;1.40;99.90
7000;DHT22;3540;53.242;10.408;2022-12-08T16:22:06;1.50;99.90
7000;DHT22;3540;53.242;10.408;2022-12-08T16:24:32;1.50;99.90
7000;DHT22;3540;53.242;10.408;2022-12-08T16:26:57;1.50;99.90
7000;DHT22;3540;53.242;10.408;2022-12-08T16:29:24;1.50;99.90
7000;DHT22;3540;53.242;10.408;2022-12-08T16:31:50;1.50;99.90
7000;DHT22;3540;53.242;10.408;2022-12-08T16:34:16;1.50;99.90
7000;DHT22;3540;53.242;10.408;2022-12-08T16:36:41;1.50;99.90
7000;DHT22;3540;53.242;10.408;2022-12-08T16:39:09;1.50;99.90
7000;DHT22;3540;53.242;10.408;2022-12-08T16:41:36;1.60;99.90
7000;DHT22;3540;53.242;10.408;2022-12-08T16:44:20;1.60;99.90
7000;DHT22;3540;53.242;10.408;2022-12-08T16:46:46;1.60;99.90
7000;DHT22;3540;53.242;10.408;2022-12-08T16:49:11;1.60;99.90
7000;DHT22;3540;53.242;10.408;2022-12-08T16:51:41;1.60;99.90
7000;DHT22;3540;53.242;10.408;2022-12-08T16:54:06;1.60;99.90
7000;DHT22;3540;53.242;10.408;2022-12-08T16:56:32;1.60;99.90
7000;DHT22;3540;53.242;10.408;2022-12-08T16:58:58;1.60;99.90
7000;DHT22;3540;53.242;10.408;2022-12-08T17:01:23;1.60;99.90
7000;DHT22;3540;53.242;10.408;2022-12-08T17:03:49;1.60;99.90
7000;DHT22;3540;53.242;10.408;2022-12-08T17:06:16;1.60;99.90
7000;DHT22;3540;53.242;10.408;2022-12-08T17:08:43;1.60;99.90
7000;DHT22;3540;53.242;10.408;2022-12-08T17:11:11;1.60;99.90
7000;DHT22;3540;53.242;10.408;2022-12-08T17:13:43;1.60;99.90
7000;DHT22;3540;53.242;10.408;2022-12-08T17:16:12;1.70;99.90
7000;DHT22;3540;53.242;10.408;2022-12-08T17:18:38;1.70;99.90
7000;DHT22;3540;53.242;10.408;2022-12-08T17:21:12;1.70;99.90
7000;DHT22;3540;53.242;10.408;2022-12-08T17:23:39;1.80;99.90
7000;DHT22;3540;53.242;10.408;2022-12-08T17:26:06;1.80;99.90
7000;DHT22;3540;53.242;10.408;2022-12-08T17:28:31;1.80;99.90
7000;DHT22;3540;53.242;10.408;2022-12-08T17:30:57;1.80;99.90
7000;DHT22;3540;53.242;10.408;2022-12-08T17:33:23;1.80;99.90
7000;DHT22;3540;53.242;10.408;2022-12-08T17:35:52;1.80;99.90
7000;DHT22;3540;53.242;10.408;2022-12-08T17:38:20;1.80;99.90
7000;DHT22;3540;53.242;10.408;2022-12-08T17:40:46;1.80;99.90
7000;DHT22;3540;53.242;10.408;2022-12-08T17:43:12;1.90;99.90
7000;DHT22;3540;53.242;10.408;2022-12-08T17:45:43;1.90;99.90
7000;DHT22;3540;53.242;10.408;2022-12-08T17:48:09;1.80;99.90
7000;DHT22;3540;53.242;10.408;2022-12-08T17:50:43;1.80;99.90
7000;DHT22;3540;53.242;10.408;2022-12-08T17:53:10;1.80;99.90
7000;DHT22;3540;53.242;10.408;2022-12-08T17:55:36;1.80;99.90
7000;DHT22;3540;53.242;10.408;2022-12-08T17:58:03;1.80;99.90
7000;DHT22;3540;53.242;10.408;2022-12-08T18:00:29;1.90;99.90
7000;DHT22;3540;53.242;10.408;2022-12-08T18:02:56;1.80;99.90
7000;DHT22;3540;53.242;10.408;2022-12-08T18:05:22;1.80;99.90
7000;DHT22;3540;53.242;10.408;2022-12-08T18:07:48;1.80;99.90
7000;DHT22;3540;53.242;10.408;2022-12-08T18:10:14;1.80;99.90
7000;DHT22;3540;53.242;10.408;2022-12-08T18:12:40;1.80;99.90